sensor_id;sensor_type;location;lat;lon;timestamp;pressure;altitude;pressure_sealevel;temperature;humidity
38400;BME280;24180;42.676;23.320;2022-11-15T00:00:51;95302.16;;;3.70;100.00
38400;BME280;24180;42.676;23.320;2022-11-15T00:03:20;95318.81;;;3.77;100.00
38400;BME280;24180;42.676;23.320;2022-11-15T00:05:46;95320.84;;;3.72;100.00
38400;BME280;24180;42.676;23.320;2022-11-15T00:08:11;95309.78;;;3.72;100.00
38400;BME280;24180;42.676;23.320;2022-11-15T00:10:37;95301.53;;;3.67;100.00
38400;BME280;24180;42.676;23.320;2022-11-15T00:13:07;95319.84;;;3.75;100.00
38400;BME280;24180;42.676;23.320;2022-11-15T00:15:36;95307.84;;;3.75;100.00
38400;BME280;24180;42.676;23.320;2022-11-15T00:18:03;95313.88;;;3.74;100.00
38400;BME280;24180;42.676;23.320;2022-11-15T00:20:29;95316.44;;;3.60;100.00
38400;BME280;24180;42.676;23.320;2022-11-15T00:22:55;95309.41;;;3.64;100.00
38400;BME280;24180;42.676;23.320;2022-11-15T00:25:21;95310.38;;;3.61;100.00
38400;BME280;24180;42.676;23.320;2022-11-15T00:27:46;95310.88;;;3.68;100.00
38400;BME280;24180;42.676;23.320;2022-11-15T00:30:12;95297.41;;;3.64;100.00
38400;BME280;24180;42.676;23.320;2022-11-15T00:32:37;95303.53;;;3.62;100.00
38400;BME280;24180;42.676;23.320;2022-11-15T00:35:03;95298.59;;;3.59;100.00
38400;BME280;24180;42.676;23.320;2022-11-15T00:37:29;95292.56;;;3.60;100.00
38400;BME280;24180;42.676;23.320;2022-11-15T00:39:54;95308.00;;;3.58;100.00
38400;BME280;24180;42.676;23.320;2022-11-15T00:42:19;95299.75;;;3.53;100.00
38400;BME280;24180;42.676;23.320;2022-11-15T00:44:45;95286.16;;;3.53;100.00
38400;BME280;24180;42.676;23.320;2022-11-15T00:47:10;95291.53;;;3.62;100.00
38400;BME280;24180;42.676;23.320;2022-11-15T00:49:36;95295.19;;;3.58;100.00
38400;BME280;24180;42.676;23.320;2022-11-15T00:52:01;95287.69;;;3.55;100.00
38400;BME280;24180;42.676;23.320;2022-11-15T00:54:27;95294.81;;;3.50;100.00
38400;BME280;24180;42.676;23.320;2022-11-15T00:56:52;95282.75;;;3.52;100.00
38400;BME280;24180;42.676;23.320;2022-11-15T00:59:17;95280.28;;;3.51;100.00
38400;BME280;24180;42.676;23.320;2022-11-15T01:01:43;95272.59;;;3.37;100.00
38400;BME280;24180;42.676;23.320;2022-11-15T01:04:08;95284.63;;;3.35;100.00
38400;BME280;24180;42.676;23.320;2022-11-15T01:06:34;95281.03;;;3.23;100.00
38400;BME280;24180;42.676;23.320;2022-11-15T01:08:59;95287.56;;;3.28;100.00
38400;BME280;24180;42.676;23.320;2022-11-15T01:11:24;95273.97;;;3.12;100.00
38400;BME280;24180;42.676;23.320;2022-11-15T01:13:50;95280.13;;;3.24;100.00
38400;BME280;24180;42.676;23.320;2022-11-15T01:16:17;95287.97;;;3.21;100.00
38400;BME280;24180;42.676;23.320;2022-11-15T01:18:44;95287.59;;;3.13;100.00
38400;BME280;24180;42.676;23.320;2022-11-15T01:21:13;95284.31;;;3.25;100.00
38400;BME280;24180;42.676;23.320;2022-11-15T01:23:39;95277.06;;;3.17;100.00
38400;BME280;24180;42.676;23.320;2022-11-15T01:26:06;95283.66;;;3.21;100.00
38400;BME280;24180;42.676;23.320;2022-11-15T01:28:33;95282.69;;;3.24;100.00
38400;BME280;24180;42.676;23.320;2022-11-15T01:31:00;95276.75;;;3.23;100.00
38400;BME280;24180;42.676;23.320;2022-11-15T01:33:28;95275.72;;;3.26;100.00
38400;BME280;24180;42.676;23.320;2022-11-15T01:35:54;95274.25;;;3.22;100.00
38400;BME280;24180;42.676;23.320;2022-11-15T01:38:19;95275.66;;;3.27;100.00
38400;BME280;24180;42.676;23.320;2022-11-15T01:40:45;95265.84;;;3.20;100.00
38400;BME280;24180;42.676;23.320;2022-11-15T01:43:24;95273.09;;;3.27;100.00
38400;BME280;24180;42.676;23.320;2022-11-15T01:45:55;95275.00;;;3.24;100.00
38400;BME280;24180;42.676;23.320;2022-11-15T01:48:25;95272.63;;;3.21;100.00
38400;BME280;24180;42.676;23.320;2022-11-15T01:50:53;95265.84;;;3.20;100.00
38400;BME280;24180;42.676;23.320;2022-11-15T01:53:21;95266.69;;;3.20;100.00
38400;BME280;24180;42.676;23.320;2022-11-15T01:55:48;95258.38;;;3.17;100.00
38400;BME280;24180;42.676;23.320;2022-11-15T01:58:14;95259.72;;;3.22;100.00
38400;BME280;24180;42.676;23.320;2022-11-15T02:00:40;95262.22;;;3.24;100.00
38400;BME280;24180;42.676;23.320;2022-11-15T02:03:05;95262.28;;;3.22;100.00
38400;BME280;24180;42.676;23.320;2022-11-15T02:05:31;95261.91;;;3.14;100.00
38400;BME280;24180;42.676;23.320;2022-11-15T02:07:59;95262.16;;;3.10;100.00
38400;BME280;24180;42.676;23.320;2022-11-15T02:10:25;95264.19;;;3.19;100.00
38400;BME280;24180;42.676;23.320;2022-11-15T02:12:51;95266.13;;;3.15;100.00
38400;BME280;24180;42.676;23.320;2022-11-15T02:15:18;95264.38;;;3.16;100.00
38400;BME280;24180;42.676;23.320;2022-11-15T02:20:41;95257.94;;;3.24;100.00
38400;BME280;24180;42.676;23.320;2022-11-15T02:23:21;95243.69;;;3.05;100.00
38400;BME280;24180;42.676;23.320;2022-11-15T02:28:39;95264.72;;;3.10;100.00
38400;BME280;24180;42.676;23.320;2022-11-15T02:31:14;95247.69;;;2.95;100.00
38400;BME280;24180;42.676;23.320;2022-11-15T02:36:41;95259.06;;;3.05;100.00
38400;BME280;24180;42.676;23.320;2022-11-15T02:41:47;95261.72;;;3.17;100.00
38400;BME280;24180;42.676;23.320;2022-11-15T02:44:36;95250.13;;;3.26;100.00
38400;BME280;24180;42.676;23.320;2022-11-15T02:47:07;95255.38;;;3.24;100.00
38400;BME280;24180;42.676;23.320;2022-11-15T02:49:45;95250.09;;;3.42;100.00
38400;BME280;24180;42.676;23.320;2022-11-15T02:52:15;95254.78;;;3.63;100.00
38400;BME280;24180;42.676;23.320;2022-11-15T02:54:41;95246.72;;;3.55;100.00
38400;BME280;24180;42.676;23.320;2022-11-15T02:57:12;95252.41;;;3.74;100.00
38400;BME280;24180;42.676;23.320;2022-11-15T03:02:13;95260.28;;;3.86;100.00
38400;BME280;24180;42.676;23.320;2022-11-15T03:10:29;95265.41;;;3.86;100.00
38400;BME280;24180;42.676;23.320;2022-11-15T03:18:43;95255.72;;;3.91;100.00
38400;BME280;24180;42.676;23.320;2022-11-15T03:21:10;95233.75;;;3.87;100.00
38400;BME280;24180;42.676;23.320;2022-11-15T03:23:38;95246.59;;;4.01;100.00
38400;BME280;24180;42.676;23.320;2022-11-15T03:26:07;95250.84;;;4.14;100.00
38400;BME280;24180;42.676;23.320;2022-11-15T03:28:47;95252.88;;;4.09;100.00
38400;BME280;24180;42.676;23.320;2022-11-15T03:31:16;95237.41;;;4.11;100.00
38400;BME280;24180;42.676;23.320;2022-11-15T03:34:05;95250.84;;;4.14;100.00
38400;BME280;24180;42.676;23.320;2022-11-15T03:36:34;95241.44;;;4.15;100.00
38400;BME280;24180;42.676;23.320;2022-11-15T03:39:02;95239.63;;;4.17;100.00
38400;BME280;24180;42.676;23.320;2022-11-15T03:41:59;95245.09;;;4.25;100.00
38400;BME280;24180;42.676;23.320;2022-11-15T03:44:54;95227.44;;;4.20;100.00
38400;BME280;24180;42.676;23.320;2022-11-15T03:47:29;95237.56;;;4.22;100.00
38400;BME280;24180;42.676;23.320;2022-11-15T03:50:18;95228.41;;;4.32;100.00
38400;BME280;24180;42.676;23.320;2022-11-15T03:52:45;95235.19;;;4.33;100.00
38400;BME280;24180;42.676;23.320;2022-11-15T03:55:14;95229.88;;;4.36;100.00
38400;BME280;24180;42.676;23.320;2022-11-15T03:57:40;95221.84;;;4.28;100.00
38400;BME280;24180;42.676;23.320;2022-11-15T04:00:06;95219.06;;;4.31;100.00
38400;BME280;24180;42.676;23.320;2022-11-15T04:02:32;95228.66;;;4.42;100.00
38400;BME280;24180;42.676;23.320;2022-11-15T04:04:57;95238.91;;;4.42;100.00
38400;BME280;24180;42.676;23.320;2022-11-15T04:07:23;95229.94;;;4.49;100.00
38400;BME280;24180;42.676;23.320;2022-11-15T04:09:48;95234.06;;;4.51;100.00
38400;BME280;24180;42.676;23.320;2022-11-15T04:12:37;95226.56;;;4.48;100.00
38400;BME280;24180;42.676;23.320;2022-11-15T04:15:13;95224.56;;;4.39;100.00
38400;BME280;24180;42.676;23.320;2022-11-15T04:17:42;95226.22;;;4.26;100.00
38400;BME280;24180;42.676;23.320;2022-11-15T04:22:55;95191.09;;;4.14;100.00
38400;BME280;24180;42.676;23.320;2022-11-15T04:25:40;95209.22;;;4.11;100.00
38400;BME280;24180;42.676;23.320;2022-11-15T04:28:06;95221.00;;;4.13;100.00
38400;BME280;24180;42.676;23.320;2022-11-15T04:30:32;95218.91;;;4.20;100.00
38400;BME280;24180;42.676;23.320;2022-11-15T04:32:57;95217.66;;;4.13;100.00
38400;BME280;24180;42.676;23.320;2022-11-15T04:35:23;95224.41;;;4.28;100.00
38400;BME280;24180;42.676;23.320;2022-11-15T04:37:48;95221.75;;;4.15;100.00
38400;BME280;24180;42.676;23.320;2022-11-15T04:40:14;95207.28;;;4.29;100.00
38400;BME280;24180;42.676;23.320;2022-11-15T04:42:42;95206.56;;;4.12;100.00
38400;BME280;24180;42.676;23.320;2022-11-15T04:45:09;95217.34;;;4.17;100.00
38400;BME280;24180;42.676;23.320;2022-11-15T04:47:34;95214.44;;;4.23;100.00
38400;BME280;24180;42.676;23.320;2022-11-15T04:50:00;95207.28;;;4.29;100.00
38400;BME280;24180;42.676;23.320;2022-11-15T04:52:25;95223.50;;;4.29;100.00
38400;BME280;24180;42.676;23.320;2022-11-15T04:54:51;95223.09;;;4.35;100.00
38400;BME280;24180;42.676;23.320;2022-11-15T04:57:16;95216.50;;;4.31;100.00
38400;BME280;24180;42.676;23.320;2022-11-15T04:59:42;95221.28;;;4.37;100.00
38400;BME280;24180;42.676;23.320;2022-11-15T05:02:07;95217.22;;;4.47;100.00
38400;BME280;24180;42.676;23.320;2022-11-15T05:04:32;95226.41;;;4.37;100.00
38400;BME280;24180;42.676;23.320;2022-11-15T05:06:58;95223.78;;;4.51;100.00
38400;BME280;24180;42.676;23.320;2022-11-15T05:09:23;95220.59;;;4.48;100.00
38400;BME280;24180;42.676;23.320;2022-11-15T05:11:49;95228.50;;;4.45;100.00
38400;BME280;24180;42.676;23.320;2022-11-15T05:14:14;95222.19;;;4.36;100.00
38400;BME280;24180;42.676;23.320;2022-11-15T05:16:40;95228.66;;;4.42;100.00
38400;BME280;24180;42.676;23.320;2022-11-15T05:19:06;95209.16;;;4.39;100.00
38400;BME280;24180;42.676;23.320;2022-11-15T05:21:32;95222.13;;;4.50;100.00
38400;BME280;24180;42.676;23.320;2022-11-15T05:23:58;95202.22;;;4.41;100.00
38400;BME280;24180;42.676;23.320;2022-11-15T05:26:24;95209.31;;;4.50;100.00
38400;BME280;24180;42.676;23.320;2022-11-15T05:28:54;95221.94;;;4.53;100.00
38400;BME280;24180;42.676;23.320;2022-11-15T05:31:20;95216.63;;;4.56;100.00
38400;BME280;24180;42.676;23.320;2022-11-15T05:33:49;95200.91;;;4.48;100.00
38400;BME280;24180;42.676;23.320;2022-11-15T05:36:35;95215.97;;;4.67;100.00
38400;BME280;24180;42.676;23.320;2022-11-15T05:39:01;95204.16;;;4.64;100.00
38400;BME280;24180;42.676;23.320;2022-11-15T05:41:51;95217.16;;;4.61;100.00
38400;BME280;24180;42.676;23.320;2022-11-15T05:44:20;95222.34;;;4.47;100.00
38400;BME280;24180;42.676;23.320;2022-11-15T05:46:47;95214.00;;;4.17;100.00
38400;BME280;24180;42.676;23.320;2022-11-15T05:49:15;95225.38;;;4.25;100.00
38400;BME280;24180;42.676;23.320;2022-11-15T05:51:43;95221.31;;;3.95;100.00
38400;BME280;24180;42.676;23.320;2022-11-15T05:54:10;95221.88;;;3.71;100.00
38400;BME280;24180;42.676;23.320;2022-11-15T05:56:37;95224.50;;;3.56;100.00
38400;BME280;24180;42.676;23.320;2022-11-15T05:59:02;95230.94;;;3.77;100.00
38400;BME280;24180;42.676;23.320;2022-11-15T06:01:29;95232.66;;;3.62;100.00
38400;BME280;24180;42.676;23.320;2022-11-15T06:03:54;95199.91;;;3.39;100.00
38400;BME280;24180;42.676;23.320;2022-11-15T06:06:20;95220.31;;;3.55;100.00
38400;BME280;24180;42.676;23.320;2022-11-15T06:08:45;95223.53;;;3.72;100.00
38400;BME280;24180;42.676;23.320;2022-11-15T06:11:13;95219.50;;;3.68;100.00
38400;BME280;24180;42.676;23.320;2022-11-15T06:13:38;95229.09;;;3.93;100.00
38400;BME280;24180;42.676;23.320;2022-11-15T06:16:04;95217.38;;;4.03;100.00
38400;BME280;24180;42.676;23.320;2022-11-15T06:18:32;95230.28;;;4.02;100.00
38400;BME280;24180;42.676;23.320;2022-11-15T06:20:59;95215.53;;;4.19;100.00
38400;BME280;24180;42.676;23.320;2022-11-15T06:23:25;95228.63;;;4.29;100.00
38400;BME280;24180;42.676;23.320;2022-11-15T06:25:51;95218.59;;;4.39;100.00
38400;BME280;24180;42.676;23.320;2022-11-15T06:28:16;95215.53;;;4.19;100.00
38400;BME280;24180;42.676;23.320;2022-11-15T06:30:41;95216.72;;;4.28;100.00
38400;BME280;24180;42.676;23.320;2022-11-15T06:33:07;95217.56;;;4.55;100.00
38400;BME280;24180;42.676;23.320;2022-11-15T06:35:34;95208.19;;;4.54;100.00
38400;BME280;24180;42.676;23.320;2022-11-15T06:38:06;95213.38;;;4.67;100.00
38400;BME280;24180;42.676;23.320;2022-11-15T06:40:40;95210.88;;;4.80;100.00
38400;BME280;24180;42.676;23.320;2022-11-15T06:43:06;95220.34;;;4.92;100.00
38400;BME280;24180;42.676;23.320;2022-11-15T06:45:32;95213.31;;;5.08;100.00
38400;BME280;24180;42.676;23.320;2022-11-15T06:47:58;95220.31;;;5.18;100.00
38400;BME280;24180;42.676;23.320;2022-11-15T06:50:24;95200.81;;;5.16;100.00
38400;BME280;24180;42.676;23.320;2022-11-15T06:52:50;95221.56;;;5.26;100.00
38400;BME280;24180;42.676;23.320;2022-11-15T06:55:15;95215.19;;;5.18;100.00
38400;BME280;24180;42.676;23.320;2022-11-15T06:57:51;95217.34;;;5.12;100.00
38400;BME280;24180;42.676;23.320;2022-11-15T07:00:19;95219.91;;;5.12;100.00
38400;BME280;24180;42.676;23.320;2022-11-15T07:02:45;95222.38;;;5.13;100.00
38400;BME280;24180;42.676;23.320;2022-11-15T07:05:13;95217.06;;;5.29;100.00
38400;BME280;24180;42.676;23.320;2022-11-15T07:07:39;95206.59;;;5.32;100.00
38400;BME280;24180;42.676;23.320;2022-11-15T07:10:05;95228.88;;;5.44;100.00
38400;BME280;24180;42.676;23.320;2022-11-15T07:12:31;95213.47;;;5.44;100.00
38400;BME280;24180;42.676;23.320;2022-11-15T07:14:57;95215.63;;;5.50;100.00
38400;BME280;24180;42.676;23.320;2022-11-15T07:17:22;95204.34;;;5.65;100.00
38400;BME280;24180;42.676;23.320;2022-11-15T07:19:48;95211.53;;;5.73;100.00
38400;BME280;24180;42.676;23.320;2022-11-15T07:22:14;95203.94;;;5.72;100.00
38400;BME280;24180;42.676;23.320;2022-11-15T07:24:40;95214.19;;;5.72;100.00
38400;BME280;24180;42.676;23.320;2022-11-15T07:27:05;95222.66;;;5.86;100.00
38400;BME280;24180;42.676;23.320;2022-11-15T07:29:31;95214.81;;;5.75;100.00
38400;BME280;24180;42.676;23.320;2022-11-15T07:31:56;95223.88;;;5.81;100.00
38400;BME280;24180;42.676;23.320;2022-11-15T07:34:22;95225.72;;;5.79;100.00
38400;BME280;24180;42.676;23.320;2022-11-15T07:36:47;95231.78;;;5.90;100.00
38400;BME280;24180;42.676;23.320;2022-11-15T07:39:12;95230.06;;;5.91;100.00
38400;BME280;24180;42.676;23.320;2022-11-15T07:41:39;95217.41;;;5.88;100.00
38400;BME280;24180;42.676;23.320;2022-11-15T07:44:04;95228.00;;;5.96;100.00
38400;BME280;24180;42.676;23.320;2022-11-15T07:46:33;95228.69;;;5.98;100.00
38400;BME280;24180;42.676;23.320;2022-11-15T07:48:58;95237.44;;;6.08;100.00
38400;BME280;24180;42.676;23.320;2022-11-15T07:51:24;95238.28;;;5.96;100.00
38400;BME280;24180;42.676;23.320;2022-11-15T07:53:49;95229.53;;;5.73;100.00
38400;BME280;24180;42.676;23.320;2022-11-15T07:56:14;95214.13;;;5.73;100.00
38400;BME280;24180;42.676;23.320;2022-11-15T07:58:40;95227.69;;;5.88;100.00
38400;BME280;24180;42.676;23.320;2022-11-15T08:01:07;95227.56;;;6.15;100.00
38400;BME280;24180;42.676;23.320;2022-11-15T08:03:33;95213.78;;;6.03;100.00
38400;BME280;24180;42.676;23.320;2022-11-15T08:05:58;95219.75;;;5.78;100.00
38400;BME280;24180;42.676;23.320;2022-11-15T08:08:24;95225.44;;;5.96;100.00
38400;BME280;24180;42.676;23.320;2022-11-15T08:10:49;95207.94;;;5.76;100.00
38400;BME280;24180;42.676;23.320;2022-11-15T08:13:15;95221.50;;;5.90;100.00
38400;BME280;24180;42.676;23.320;2022-11-15T08:15:41;95213.38;;;5.84;100.00
38400;BME280;24180;42.676;23.320;2022-11-15T08:18:13;95219.13;;;6.13;100.00
38400;BME280;24180;42.676;23.320;2022-11-15T08:20:40;95213.56;;;6.19;100.00
38400;BME280;24180;42.676;23.320;2022-11-15T08:23:06;95216.34;;;6.28;100.00
38400;BME280;24180;42.676;23.320;2022-11-15T08:25:33;95219.75;;;6.03;100.00
38400;BME280;24180;42.676;23.320;2022-11-15T08:28:01;95201.06;;;5.89;100.00
38400;BME280;24180;42.676;23.320;2022-11-15T08:30:27;95216.66;;;5.48;100.00
38400;BME280;24180;42.676;23.320;2022-11-15T08:32:53;95202.91;;;5.61;100.00
38400;BME280;24180;42.676;23.320;2022-11-15T08:35:21;95207.63;;;5.68;100.00
38400;BME280;24180;42.676;23.320;2022-11-15T08:37:46;95209.28;;;5.94;100.00
38400;BME280;24180;42.676;23.320;2022-11-15T08:40:12;95202.66;;;6.28;100.00
38400;BME280;24180;42.676;23.320;2022-11-15T08:42:39;95197.88;;;6.34;100.00
38400;BME280;24180;42.676;23.320;2022-11-15T08:45:05;95202.16;;;6.46;100.00
38400;BME280;24180;42.676;23.320;2022-11-15T08:47:31;95201.19;;;6.36;100.00
38400;BME280;24180;42.676;23.320;2022-11-15T08:49:56;95192.34;;;6.64;100.00
38400;BME280;24180;42.676;23.320;2022-11-15T08:52:22;95202.13;;;6.83;100.00
38400;BME280;24180;42.676;23.320;2022-11-15T08:54:47;95199.78;;;6.80;100.00
38400;BME280;24180;42.676;23.320;2022-11-15T08:57:13;95202.31;;;6.92;100.00
38400;BME280;24180;42.676;23.320;2022-11-15T08:59:38;95190.34;;;6.91;100.00
38400;BME280;24180;42.676;23.320;2022-11-15T09:02:04;95185.88;;;7.06;100.00
38400;BME280;24180;42.676;23.320;2022-11-15T09:04:30;95194.47;;;7.18;100.00
38400;BME280;24180;42.676;23.320;2022-11-15T09:06:56;95165.47;;;7.03;100.00
38400;BME280;24180;42.676;23.320;2022-11-15T09:09:21;95177.69;;;7.12;100.00
38400;BME280;24180;42.676;23.320;2022-11-15T09:11:47;95166.53;;;7.00;100.00
38400;BME280;24180;42.676;23.320;2022-11-15T09:14:13;95181.53;;;7.41;100.00
38400;BME280;24180;42.676;23.320;2022-11-15T09:16:39;95178.44;;;7.36;100.00
38400;BME280;24180;42.676;23.320;2022-11-15T09:19:04;95171.47;;;7.61;100.00
38400;BME280;24180;42.676;23.320;2022-11-15T09:21:30;95168.91;;;7.72;100.00
38400;BME280;24180;42.676;23.320;2022-11-15T09:23:56;95158.47;;;7.62;100.00
38400;BME280;24180;42.676;23.320;2022-11-15T09:26:22;95152.97;;;7.78;100.00
38400;BME280;24180;42.676;23.320;2022-11-15T09:28:48;95157.31;;;7.77;100.00
38400;BME280;24180;42.676;23.320;2022-11-15T09:31:13;95155.78;;;7.75;100.00
38400;BME280;24180;42.676;23.320;2022-11-15T09:33:39;95153.19;;;7.52;100.00
38400;BME280;24180;42.676;23.320;2022-11-15T09:36:07;95145.47;;;7.86;100.00
38400;BME280;24180;42.676;23.320;2022-11-15T09:38:33;95155.91;;;7.95;100.00
38400;BME280;24180;42.676;23.320;2022-11-15T09:49:56;95135.25;;;8.29;100.00
38400;BME280;24180;42.676;23.320;2022-11-15T09:52:22;95128.91;;;8.11;100.00
38400;BME280;24180;42.676;23.320;2022-11-15T09:54:50;95131.75;;;8.30;100.00
38400;BME280;24180;42.676;23.320;2022-11-15T09:57:21;95129.66;;;8.56;100.00
38400;BME280;24180;42.676;23.320;2022-11-15T10:02:37;95126.53;;;8.84;100.00
38400;BME280;24180;42.676;23.320;2022-11-15T10:05:11;95110.97;;;8.95;100.00
38400;BME280;24180;42.676;23.320;2022-11-15T10:13:22;95099.03;;;10.06;100.00
38400;BME280;24180;42.676;23.320;2022-11-15T10:15:50;95095.19;;;11.07;100.00
38400;BME280;24180;42.676;23.320;2022-11-15T10:20:50;95086.69;;;13.16;100.00
38400;BME280;24180;42.676;23.320;2022-11-15T10:23:19;95076.16;;;14.02;100.00
38400;BME280;24180;42.676;23.320;2022-11-15T10:25:46;95087.47;;;15.02;100.00
38400;BME280;24180;42.676;23.320;2022-11-15T10:28:30;95083.16;;;15.89;100.00
38400;BME280;24180;42.676;23.320;2022-11-15T10:30:57;95069.41;;;17.19;88.50
38400;BME280;24180;42.676;23.320;2022-11-15T10:38:56;95055.81;;;18.70;64.03
38400;BME280;24180;42.676;23.320;2022-11-15T10:46:44;95035.84;;;20.77;52.96
38400;BME280;24180;42.676;23.320;2022-11-15T10:49:25;95023.16;;;21.53;50.11
38400;BME280;24180;42.676;23.320;2022-11-15T10:51:57;95028.81;;;21.63;48.35
38400;BME280;24180;42.676;23.320;2022-11-15T10:54:46;95029.63;;;22.54;46.78
38400;BME280;24180;42.676;23.320;2022-11-15T10:57:14;95030.25;;;21.65;46.87
38400;BME280;24180;42.676;23.320;2022-11-15T10:59:56;95025.03;;;19.21;51.51
38400;BME280;24180;42.676;23.320;2022-11-15T11:02:41;95021.63;;;17.02;68.22
38400;BME280;24180;42.676;23.320;2022-11-15T11:07:57;95008.63;;;14.83;94.17
38400;BME280;24180;42.676;23.320;2022-11-15T11:10:23;95008.00;;;13.73;100.00
38400;BME280;24180;42.676;23.320;2022-11-15T11:12:49;95005.94;;;13.43;100.00
38400;BME280;24180;42.676;23.320;2022-11-15T11:15:15;95013.00;;;13.07;100.00
38400;BME280;24180;42.676;23.320;2022-11-15T11:18:06;95009.34;;;12.39;100.00
38400;BME280;24180;42.676;23.320;2022-11-15T11:20:44;94999.84;;;11.85;100.00
38400;BME280;24180;42.676;23.320;2022-11-15T11:23:44;94994.34;;;11.60;100.00
38400;BME280;24180;42.676;23.320;2022-11-15T11:26:29;94983.41;;;11.39;100.00
38400;BME280;24180;42.676;23.320;2022-11-15T11:34:55;94971.34;;;10.16;100.00
38400;BME280;24180;42.676;23.320;2022-11-15T11:37:43;94966.53;;;10.02;100.00
38400;BME280;24180;42.676;23.320;2022-11-15T11:40:40;94967.75;;;10.08;100.00
38400;BME280;24180;42.676;23.320;2022-11-15T11:43:11;94964.75;;;10.12;100.00
38400;BME280;24180;42.676;23.320;2022-11-15T11:48:38;94955.75;;;9.87;100.00
38400;BME280;24180;42.676;23.320;2022-11-15T11:51:11;94946.59;;;9.64;100.00
38400;BME280;24180;42.676;23.320;2022-11-15T11:53:45;94940.53;;;9.35;100.00
38400;BME280;24180;42.676;23.320;2022-11-15T11:56:26;94937.16;;;9.34;100.00
38400;BME280;24180;42.676;23.320;2022-11-15T11:58:55;94943.81;;;9.37;100.00
38400;BME280;24180;42.676;23.320;2022-11-15T12:01:28;94936.63;;;9.40;100.00
38400;BME280;24180;42.676;23.320;2022-11-15T12:04:09;94918.47;;;9.31;100.00
38400;BME280;24180;42.676;23.320;2022-11-15T12:09:30;94923.63;;;9.21;100.00
38400;BME280;24180;42.676;23.320;2022-11-15T12:12:17;94911.94;;;9.27;100.00
38400;BME280;24180;42.676;23.320;2022-11-15T12:15:00;94919.69;;;9.27;100.00
38400;BME280;24180;42.676;23.320;2022-11-15T12:17:31;94910.44;;;9.24;100.00
38400;BME280;24180;42.676;23.320;2022-11-15T12:20:05;94909.13;;;9.30;100.00
38400;BME280;24180;42.676;23.320;2022-11-15T12:25:20;94902.41;;;9.18;100.00
38400;BME280;24180;42.676;23.320;2022-11-15T12:28:11;94884.56;;;9.15;100.00
38400;BME280;24180;42.676;23.320;2022-11-15T12:30:53;94878.91;;;9.21;100.00
38400;BME280;24180;42.676;23.320;2022-11-15T12:33:36;94886.50;;;9.13;100.00
38400;BME280;24180;42.676;23.320;2022-11-15T12:36:05;94885.00;;;9.10;100.00
38400;BME280;24180;42.676;23.320;2022-11-15T12:41:25;94864.72;;;9.15;100.00
38400;BME280;24180;42.676;23.320;2022-11-15T12:43:51;94865.16;;;9.20;100.00
38400;BME280;24180;42.676;23.320;2022-11-15T12:51:22;94866.75;;;9.12;100.00
38400;BME280;24180;42.676;23.320;2022-11-15T12:59:55;94860.94;;;9.19;100.00
38400;BME280;24180;42.676;23.320;2022-11-15T13:02:47;94854.69;;;9.22;100.00
38400;BME280;24180;42.676;23.320;2022-11-15T13:17:55;94843.34;;;9.04;100.00
38400;BME280;24180;42.676;23.320;2022-11-15T13:20:38;94838.59;;;8.99;100.00
38400;BME280;24180;42.676;23.320;2022-11-15T13:23:13;94832.34;;;9.02;100.00
38400;BME280;24180;42.676;23.320;2022-11-15T13:30:49;94830.16;;;8.97;100.00
38400;BME280;24180;42.676;23.320;2022-11-15T13:33:18;94824.84;;;8.89;100.00
38400;BME280;24180;42.676;23.320;2022-11-15T13:35:52;94815.03;;;8.83;100.00
38400;BME280;24180;42.676;23.320;2022-11-15T13:38:31;94817.59;;;8.83;100.00
38400;BME280;24180;42.676;23.320;2022-11-15T13:40:58;94826.22;;;8.93;100.00
38400;BME280;24180;42.676;23.320;2022-11-15T13:43:32;94827.13;;;8.82;100.00
38400;BME280;24180;42.676;23.320;2022-11-15T13:48:44;94789.31;;;8.72;100.00
38400;BME280;24180;42.676;23.320;2022-11-15T13:51:33;94811.53;;;8.93;100.00
38400;BME280;24180;42.676;23.320;2022-11-15T13:54:20;94812.44;;;8.83;100.00
38400;BME280;24180;42.676;23.320;2022-11-15T13:57:12;94812.59;;;8.81;100.00
38400;BME280;24180;42.676;23.320;2022-11-15T13:59:52;94810.81;;;8.82;100.00
38400;BME280;24180;42.676;23.320;2022-11-15T14:02:27;94809.31;;;8.79;100.00
38400;BME280;24180;42.676;23.320;2022-11-15T14:05:02;94805.75;;;8.71;100.00
38400;BME280;24180;42.676;23.320;2022-11-15T14:07:29;94810.91;;;8.71;100.00
38400;BME280;24180;42.676;23.320;2022-11-15T14:09:55;94809.28;;;8.70;100.00
38400;BME280;24180;42.676;23.320;2022-11-15T14:12:30;94813.63;;;8.69;100.00
38400;BME280;24180;42.676;23.320;2022-11-15T14:14:58;94813.25;;;8.74;100.00
38400;BME280;24180;42.676;23.320;2022-11-15T14:19:58;94812.13;;;8.67;100.00
38400;BME280;24180;42.676;23.320;2022-11-15T14:22:28;94805.16;;;8.58;100.00
38400;BME280;24180;42.676;23.320;2022-11-15T14:25:15;94800.78;;;8.49;100.00
38400;BME280;24180;42.676;23.320;2022-11-15T14:27:43;94801.06;;;8.55;100.00
38400;BME280;24180;42.676;23.320;2022-11-15T14:30:16;94802.81;;;8.55;100.00
38400;BME280;24180;42.676;23.320;2022-11-15T14:32:48;94798.69;;;8.42;100.00
38400;BME280;24180;42.676;23.320;2022-11-15T14:35:16;94806.44;;;8.42;100.00
38400;BME280;24180;42.676;23.320;2022-11-15T14:37:42;94802.25;;;8.41;100.00
38400;BME280;24180;42.676;23.320;2022-11-15T14:40:12;94794.47;;;8.32;100.00
38400;BME280;24180;42.676;23.320;2022-11-15T14:42:38;94785.84;;;8.22;100.00
38400;BME280;24180;42.676;23.320;2022-11-15T14:45:10;94792.25;;;8.07;100.00
38400;BME280;24180;42.676;23.320;2022-11-15T14:47:37;94796.84;;;8.03;100.00
38400;BME280;24180;42.676;23.320;2022-11-15T14:50:02;94790.31;;;7.99;100.00
38400;BME280;24180;42.676;23.320;2022-11-15T14:52:31;94777.41;;;7.78;100.00
38400;BME280;24180;42.676;23.320;2022-11-15T14:55:02;94795.81;;;7.85;100.00